createdAt,value
2023-03-05T00:02:43.290Z,6.28
2023-03-05T00:05:46.542Z,5.93
2023-03-05T00:08:50.019Z,3.37
2023-03-05T00:11:53.040Z,4.27
2023-03-05T00:14:56.004Z,5.72
2023-03-05T00:17:59.461Z,6.05
2023-03-05T00:21:02.143Z,3.33
2023-03-05T00:24:09.155Z,6.40
2023-03-05T00:27:11.820Z,5.60
2023-03-05T00:30:15.151Z,5.47
2023-03-05T00:33:17.888Z,5.53
2023-03-05T00:36:21.323Z,5.32
2023-03-05T00:39:24.058Z,5.80
2023-03-05T00:42:27.219Z,3.70
2023-03-05T00:45:30.049Z,5.47
2023-03-05T00:48:33.119Z,5.28
2023-03-05T00:51:36.125Z,5.43
2023-03-05T00:54:39.125Z,4.82
2023-03-05T00:57:42.009Z,3.50
2023-03-05T01:00:45.202Z,4.47
2023-03-05T01:03:48.041Z,5.25
2023-03-05T01:06:51.477Z,4.12
2023-03-05T01:09:54.344Z,5.53
2023-03-05T01:12:57.698Z,4.03
2023-03-05T01:16:01.288Z,5.40
2023-03-05T01:19:04.425Z,5.55
2023-03-05T01:22:07.193Z,3.00
2023-03-05T01:25:10.580Z,5.50
2023-03-05T01:28:13.289Z,4.33
2023-03-05T01:31:16.564Z,3.87
2023-03-05T01:34:19.357Z,4.93
2023-03-05T01:37:22.369Z,5.72
2023-03-05T01:40:27.525Z,4.28
2023-03-05T01:43:31.563Z,5.43
2023-03-05T01:46:36.452Z,4.80
2023-03-05T01:49:41.638Z,4.37
2023-03-05T01:52:50.795Z,3.65
2023-03-05T01:55:55.993Z,5.18
2023-03-05T01:59:03.782Z,5.17
2023-03-05T02:02:08.391Z,3.45
2023-03-05T02:05:16.347Z,4.65
2023-03-05T02:08:22.236Z,5.57
2023-03-05T02:11:26.321Z,5.50
2023-03-05T02:14:29.600Z,5.17
2023-03-05T02:17:32.247Z,5.13
2023-03-05T02:21:06.257Z,3.95
2023-03-05T02:24:15.176Z,5.45
2023-03-05T02:27:21.158Z,5.72
2023-03-05T02:30:24.572Z,5.63
2023-03-05T02:33:27.592Z,5.73
2023-03-05T02:36:30.286Z,6.00
2023-03-05T02:39:33.465Z,5.60
2023-03-05T02:42:36.394Z,4.70
2023-03-05T02:45:40.025Z,3.63
2023-03-05T02:48:42.890Z,5.97
2023-03-05T02:51:47.091Z,5.18
2023-03-05T02:54:50.637Z,3.30
2023-03-05T02:57:53.853Z,5.65
2023-03-05T03:00:58.156Z,5.67
2023-03-05T03:04:01.364Z,5.30
2023-03-05T03:07:04.155Z,6.05
2023-03-05T03:10:07.863Z,5.28
2023-03-05T03:13:10.631Z,4.95
2023-03-05T03:16:15.552Z,4.90
2023-03-05T03:19:18.275Z,4.67
2023-03-05T03:22:21.527Z,5.65
2023-03-05T03:25:24.372Z,5.18
2023-03-05T03:28:28.158Z,4.65
2023-03-05T03:31:30.935Z,6.33
2023-03-05T03:34:34.012Z,6.70
2023-03-05T03:37:36.839Z,6.47
2023-03-05T03:40:43.502Z,4.12
2023-03-05T03:43:46.210Z,3.80
2023-03-05T03:46:50.835Z,4.13
2023-03-05T03:49:56.512Z,6.47
2023-03-05T03:52:59.489Z,6.68
2023-03-05T03:56:02.359Z,6.12
2023-03-05T03:59:05.373Z,6.65
2023-03-05T04:02:08.323Z,4.67
2023-03-05T04:05:11.521Z,6.20
2023-03-05T04:08:14.289Z,7.35
2023-03-05T04:11:19.557Z,6.65
2023-03-05T04:14:22.348Z,5.15
2023-03-05T04:17:25.541Z,7.30
2023-03-05T04:20:28.224Z,5.53
2023-03-05T04:23:31.494Z,6.55
2023-03-05T04:26:34.575Z,6.25
2023-03-05T04:29:37.835Z,7.32
2023-03-05T04:32:41.100Z,4.50
2023-03-05T04:35:44.369Z,4.50
2023-03-05T04:38:47.208Z,6.68
2023-03-05T04:41:50.319Z,7.03
2023-03-05T04:44:53.098Z,5.90
2023-03-05T04:47:56.186Z,6.20
2023-03-05T04:50:58.931Z,7.40
2023-03-05T04:54:02.003Z,6.97
2023-03-05T04:57:04.842Z,6.03
2023-03-05T05:00:14.538Z,6.60
2023-03-05T05:03:17.328Z,4.07
2023-03-05T05:06:20.446Z,6.80
2023-03-05T05:09:24.437Z,8.07
2023-03-05T05:12:30.948Z,6.95
2023-03-05T05:15:33.709Z,4.53
2023-03-05T05:18:36.853Z,6.60
2023-03-05T05:21:39.896Z,4.93
2023-03-05T05:24:42.959Z,6.10
2023-03-05T05:27:45.553Z,3.35
2023-03-05T05:30:48.570Z,5.37
2023-03-05T05:33:51.229Z,6.43
2023-03-05T05:36:54.300Z,6.97
2023-03-05T05:39:57.022Z,7.10
2023-03-05T05:43:00.206Z,6.15
2023-03-05T05:46:05.649Z,7.10
2023-03-05T05:49:08.931Z,5.80
2023-03-05T05:52:11.972Z,5.23
2023-03-05T05:55:15.095Z,6.55
2023-03-05T05:58:18.340Z,7.75
2023-03-05T06:01:25.640Z,4.90
2023-03-05T06:04:28.974Z,5.60
2023-03-05T06:07:31.977Z,7.67
2023-03-05T06:10:35.310Z,5.85
2023-03-05T06:13:38.319Z,6.25
2023-03-05T06:16:41.597Z,6.72
2023-03-05T06:19:44.478Z,6.97
2023-03-05T06:22:47.594Z,8.07
2023-03-05T06:25:50.582Z,8.20
2023-03-05T06:28:53.850Z,4.22
2023-03-05T06:31:56.581Z,6.32
2023-03-05T06:34:59.824Z,6.10
2023-03-05T06:38:02.643Z,6.67
2023-03-05T06:41:09.688Z,6.25
2023-03-05T06:44:12.755Z,6.65
2023-03-05T06:47:15.875Z,5.35
2023-03-05T06:50:18.891Z,6.97
2023-03-05T06:53:23.709Z,4.10
2023-03-05T06:56:27.270Z,7.80
2023-03-05T06:59:30.818Z,9.13
2023-03-05T07:02:33.894Z,7.20
2023-03-05T07:05:41.141Z,7.27
2023-03-05T07:08:45.158Z,7.40
2023-03-05T07:11:48.591Z,6.43
2023-03-05T07:14:51.385Z,4.93
2023-03-05T07:17:54.424Z,3.65
2023-03-05T07:21:01.607Z,7.47
2023-03-05T07:24:05.701Z,7.77
2023-03-05T07:27:11.295Z,8.82
2023-03-05T07:30:15.620Z,7.12
2023-03-05T07:33:18.339Z,7.37
2023-03-05T07:36:21.476Z,7.13
2023-03-05T07:39:24.328Z,8.50
2023-03-05T07:42:27.588Z,5.18
2023-03-05T07:45:32.273Z,7.70
2023-03-05T07:48:35.926Z,6.22
2023-03-05T07:51:41.972Z,7.10
2023-03-05T07:54:45.123Z,6.60
2023-03-05T07:57:47.741Z,8.50
2023-03-05T08:00:51.124Z,5.37
2023-03-05T08:03:54.215Z,5.55
2023-03-05T08:06:56.966Z,7.03
2023-03-05T08:10:00.192Z,7.00
2023-03-05T08:13:03.709Z,7.03
2023-03-05T08:16:08.869Z,7.72
2023-03-05T08:19:11.826Z,9.18
2023-03-05T08:22:16.343Z,8.87
2023-03-05T08:25:19.270Z,9.17
2023-03-05T08:28:22.981Z,8.85
2023-03-05T08:31:27.832Z,7.63
2023-03-05T08:34:30.915Z,7.60
2023-03-05T08:37:33.864Z,8.07
2023-03-05T08:40:37.059Z,5.35
2023-03-05T08:43:39.826Z,6.87
2023-03-05T08:46:43.340Z,7.57
2023-03-05T08:49:46.458Z,5.68
2023-03-05T08:52:50.362Z,6.75
2023-03-05T08:55:58.389Z,6.80
2023-03-05T08:59:02.085Z,7.33
2023-03-05T09:02:04.866Z,7.27
2023-03-05T09:05:08.557Z,9.02
2023-03-05T09:08:11.536Z,6.28
2023-03-05T09:11:14.801Z,5.72
2023-03-05T09:14:17.553Z,6.20
2023-03-05T09:17:20.729Z,6.83
2023-03-05T09:20:23.412Z,4.35
2023-03-05T09:23:26.576Z,5.35
2023-03-05T09:26:29.419Z,6.60
2023-03-05T09:29:32.653Z,7.83
2023-03-05T09:32:35.544Z,7.27
2023-03-05T09:35:38.893Z,7.25
2023-03-05T09:38:41.618Z,5.43
2023-03-05T09:42:10.328Z,7.78
2023-03-05T09:45:18.376Z,4.80
2023-03-05T09:48:39.064Z,4.53
2023-03-05T09:51:43.212Z,5.65
2023-03-05T09:54:53.039Z,6.40
2023-03-05T09:58:03.493Z,6.82
2023-03-05T10:01:19.678Z,5.97
2023-03-05T10:04:44.832Z,5.40
2023-03-05T10:08:03.497Z,5.93
2023-03-05T10:11:22.780Z,6.45
2023-03-05T10:14:35.458Z,5.93
2023-03-05T10:17:50.693Z,4.57
2023-03-05T10:21:01.657Z,6.13
2023-03-05T10:24:05.050Z,6.50
2023-03-05T10:27:19.495Z,4.60
2023-03-05T10:30:54.673Z,5.05
2023-03-05T10:34:06.954Z,5.20
2023-03-05T10:37:09.906Z,4.60
2023-03-05T10:40:40.942Z,5.10
2023-03-05T10:43:46.908Z,5.25
2023-03-05T10:46:50.729Z,2.95
2023-03-05T10:49:57.484Z,5.17
2023-03-05T10:53:31.058Z,3.47
2023-03-05T10:56:34.296Z,4.97
2023-03-05T10:59:37.703Z,3.70
2023-03-05T11:03:03.107Z,4.65
2023-03-05T11:06:06.388Z,5.90
2023-03-05T11:09:30.026Z,4.93
2023-03-05T11:12:37.903Z,4.20
2023-03-05T11:15:41.117Z,4.85
2023-03-05T11:18:46.706Z,5.15
2023-03-05T11:22:15.834Z,4.43
2023-03-05T11:25:21.706Z,4.33
2023-03-05T11:28:40.677Z,5.05
2023-03-05T11:31:43.582Z,4.85
2023-03-05T11:34:47.605Z,5.20
2023-03-05T11:38:01.579Z,4.50
2023-03-05T11:41:07.117Z,4.77
2023-03-05T11:44:22.409Z,4.95
2023-03-05T11:47:46.339Z,3.28
2023-03-05T11:50:55.653Z,3.20
2023-03-05T11:54:06.458Z,5.33
2023-03-05T11:57:14.602Z,3.93
2023-03-05T12:00:25.118Z,5.22
2023-03-05T12:03:35.244Z,4.95
2023-03-05T12:06:41.258Z,5.15
2023-03-05T12:09:49.637Z,4.73
2023-03-05T12:13:12.890Z,5.20
2023-03-05T12:16:37.439Z,5.00
2023-03-05T12:19:52.912Z,2.97
2023-03-05T12:22:58.481Z,4.50
2023-03-05T12:26:01.916Z,3.90
2023-03-05T12:29:05.226Z,3.90
2023-03-05T12:32:32.046Z,3.62
2023-03-05T12:35:41.294Z,4.28
2023-03-05T12:38:57.698Z,3.83
2023-03-05T12:42:00.754Z,4.17
2023-03-05T12:45:11.227Z,2.77
2023-03-05T12:48:14.917Z,3.30
2023-03-05T12:51:51.698Z,3.87
2023-03-05T12:55:06.550Z,3.78
2023-03-05T12:58:28.826Z,4.17
2023-03-05T13:01:38.035Z,3.87
2023-03-05T13:04:44.590Z,3.47
2023-03-05T13:07:49.339Z,5.00
2023-03-05T13:10:59.240Z,4.70
2023-03-05T13:14:03.757Z,4.20
2023-03-05T13:17:45.312Z,5.03
2023-03-05T13:20:57.121Z,4.12
2023-03-05T13:24:03.849Z,3.92
2023-03-05T13:27:31.365Z,4.35
2023-03-05T13:30:35.298Z,3.97
2023-03-05T13:33:38.830Z,4.57
2023-03-05T13:36:48.683Z,3.97
2023-03-05T13:39:55.324Z,3.87
2023-03-05T13:43:13.399Z,4.30
2023-03-05T13:46:29.454Z,3.97
2023-03-05T13:49:33.651Z,4.30
2023-03-05T13:52:39.433Z,4.20
2023-03-05T13:55:43.805Z,3.25
2023-03-05T13:58:57.658Z,3.03
2023-03-05T14:02:06.119Z,4.97
2023-03-05T14:05:16.832Z,4.77
2023-03-05T14:08:27.914Z,2.92
2023-03-05T14:11:31.886Z,3.45
2023-03-05T14:14:37.555Z,2.80
2023-03-05T14:17:43.816Z,2.90
2023-03-05T14:21:09.744Z,3.13
2023-03-05T14:24:28.712Z,4.32
2023-03-05T14:27:39.296Z,4.72
2023-03-05T14:30:53.092Z,4.32
2023-03-05T14:34:05.723Z,3.63
2023-03-05T14:37:42.936Z,4.97
2023-03-05T14:40:47.343Z,4.15
2023-03-05T14:43:51.913Z,3.47
2023-03-05T14:46:57.160Z,4.00
2023-03-05T14:50:02.754Z,4.77
2023-03-05T14:53:16.794Z,5.20
2023-03-05T14:56:28.859Z,4.00
2023-03-05T14:59:33.097Z,3.90
2023-03-05T15:02:37.625Z,3.15
2023-03-05T15:05:43.945Z,4.70
2023-03-05T15:08:48.803Z,4.00
2023-03-05T15:11:51.918Z,3.90
2023-03-05T15:14:57.935Z,3.12
2023-03-05T15:18:02.651Z,3.85
2023-03-05T15:21:06.737Z,2.93
2023-03-05T15:24:13.939Z,4.03
2023-03-05T15:27:18.410Z,4.37
2023-03-05T15:30:26.804Z,3.62
2023-03-05T15:33:33.589Z,4.40
2023-03-05T15:36:38.085Z,4.27
2023-03-05T15:39:43.069Z,3.87
2023-03-05T15:42:47.190Z,3.58
2023-03-05T15:45:51.822Z,4.00
2023-03-05T15:48:58.411Z,3.60
2023-03-05T15:52:06.888Z,3.57
2023-03-05T15:55:11.627Z,4.10
2023-03-05T15:58:18.423Z,3.80
2023-03-05T16:01:24.214Z,3.70
2023-03-05T16:04:32.224Z,3.58
2023-03-05T16:07:40.722Z,3.27
2023-03-05T16:10:49.971Z,5.00
2023-03-05T16:13:54.604Z,3.58
2023-03-05T16:17:04.232Z,3.40
2023-03-05T16:20:09.601Z,4.50
2023-03-05T16:23:15.569Z,4.37
2023-03-05T16:26:19.839Z,3.20
2023-03-05T16:29:25.265Z,3.17
2023-03-05T16:32:31.451Z,3.30
2023-03-05T16:35:36.474Z,4.10
2023-03-05T16:38:41.249Z,4.27
2023-03-05T16:41:47.900Z,3.00
2023-03-05T16:44:52.609Z,3.47
2023-03-05T16:48:00.022Z,3.40
2023-03-05T16:51:05.391Z,3.00
2023-03-05T16:54:10.442Z,3.53
2023-03-05T16:57:14.482Z,3.30
2023-03-05T17:00:19.753Z,3.95
2023-03-05T17:03:24.100Z,4.68
2023-03-05T17:06:32.109Z,4.37
2023-03-05T17:09:36.871Z,12.40
2023-03-05T17:12:42.662Z,19.73
2023-03-05T17:15:47.076Z,13.55
2023-03-05T17:19:01.381Z,10.20
2023-03-05T17:22:06.234Z,10.85
2023-03-05T17:25:11.512Z,8.47
2023-03-05T17:28:15.664Z,7.10
2023-03-05T17:31:30.317Z,7.60
2023-03-05T17:34:36.898Z,5.18
2023-03-05T17:37:41.079Z,5.78
2023-03-05T17:40:45.721Z,6.40
2023-03-05T17:43:51.662Z,6.87
2023-03-05T17:46:55.837Z,8.35
2023-03-05T17:50:03.880Z,12.18
2023-03-05T17:53:09.122Z,19.83
2023-03-05T17:56:17.468Z,25.87
2023-03-05T17:59:21.915Z,23.35
2023-03-05T18:02:27.030Z,17.45
2023-03-05T18:05:33.917Z,14.60
2023-03-05T18:08:40.187Z,15.15
2023-03-05T18:11:46.336Z,13.43
2023-03-05T18:14:52.270Z,9.30
2023-03-05T18:17:58.682Z,20.25
2023-03-05T18:21:03.637Z,14.40
2023-03-05T18:24:10.120Z,16.40
2023-03-05T18:27:18.554Z,16.10
2023-03-05T18:30:24.072Z,11.60
2023-03-05T18:33:28.842Z,7.55
2023-03-05T18:36:33.855Z,5.80
2023-03-05T18:39:37.380Z,6.15
2023-03-05T18:42:42.249Z,9.83
2023-03-05T18:45:48.537Z,12.98
2023-03-05T18:48:54.028Z,14.68
2023-03-05T18:51:58.122Z,11.77
2023-03-05T18:55:03.470Z,11.95
2023-03-05T18:58:07.756Z,10.87
2023-03-05T19:01:12.725Z,13.35
2023-03-05T19:04:17.549Z,14.05
2023-03-05T19:07:22.860Z,13.27
2023-03-05T19:10:28.939Z,16.00
2023-03-05T19:13:40.667Z,14.33
2023-03-05T19:16:44.872Z,15.70
2023-03-05T19:19:59.660Z,15.63
2023-03-05T19:23:03.894Z,16.40
2023-03-05T19:26:08.990Z,15.25
2023-03-05T19:29:14.124Z,15.80
2023-03-05T19:32:22.104Z,13.27
2023-03-05T19:35:26.221Z,13.40
2023-03-05T19:38:45.107Z,12.82
2023-03-05T19:41:51.008Z,13.93
2023-03-05T19:44:58.432Z,13.20
2023-03-05T19:48:06.562Z,13.82
2023-03-05T19:51:17.572Z,12.52
2023-03-05T19:54:24.596Z,13.70
2023-03-05T19:57:30.632Z,14.00
2023-03-05T20:00:39.635Z,14.87
2023-03-05T20:03:49.698Z,13.03
2023-03-05T20:06:55.484Z,13.32
2023-03-05T20:10:02.190Z,12.82
2023-03-05T20:13:07.750Z,11.18
2023-03-05T20:16:28.967Z,10.33
2023-03-05T20:19:36.327Z,13.73
2023-03-05T20:22:47.146Z,13.93
2023-03-05T20:25:56.449Z,13.82
2023-03-05T20:29:05.865Z,13.65
2023-03-05T20:32:09.553Z,16.77
2023-03-05T20:35:17.696Z,12.85
2023-03-05T20:38:32.611Z,12.45
2023-03-05T20:41:41.326Z,9.82
2023-03-05T20:44:45.896Z,17.98
2023-03-05T20:47:52.269Z,20.60
2023-03-05T20:50:56.523Z,22.20
2023-03-05T20:54:07.034Z,16.85
2023-03-05T20:57:11.890Z,12.98
2023-03-05T21:00:18.828Z,11.65
2023-03-05T21:03:25.475Z,17.13
2023-03-05T21:06:32.093Z,18.83
2023-03-05T21:09:36.560Z,15.25
2023-03-05T21:12:41.069Z,14.23
2023-03-05T21:15:45.178Z,14.23
2023-03-05T21:18:49.698Z,11.13
2023-03-05T21:21:53.161Z,8.77
2023-03-05T21:25:12.984Z,10.85
2023-03-05T21:28:18.404Z,11.85
2023-03-05T21:31:23.971Z,11.07
2023-03-05T21:34:27.193Z,10.17
2023-03-05T21:37:31.812Z,9.90
2023-03-05T21:40:38.381Z,10.75
2023-03-05T21:43:42.912Z,8.00
2023-03-05T21:46:45.732Z,9.95
2023-03-05T21:49:49.708Z,7.33
2023-03-05T21:52:53.224Z,8.02
2023-03-05T21:56:15.622Z,7.35
2023-03-05T21:59:18.738Z,6.87
2023-03-05T22:02:22.474Z,6.68
2023-03-05T22:05:25.498Z,6.67
2023-03-05T22:08:30.099Z,6.68
2023-03-05T22:11:33.586Z,7.35
2023-03-05T22:14:36.639Z,7.62
2023-03-05T22:17:39.733Z,9.10
2023-03-05T22:20:42.719Z,12.37
2023-03-05T22:23:45.807Z,11.68
2023-03-05T22:26:48.496Z,9.98
2023-03-05T22:29:51.524Z,9.38
2023-03-05T22:32:54.264Z,8.65
2023-03-05T22:35:58.040Z,7.77
2023-03-05T22:39:00.838Z,7.43
2023-03-05T22:42:05.287Z,7.90
2023-03-05T22:45:09.546Z,7.15
2023-03-05T22:48:12.714Z,6.82
2023-03-05T22:51:16.789Z,7.10
2023-03-05T22:54:19.888Z,7.82
2023-03-05T22:57:22.847Z,7.90
2023-03-05T23:00:26.961Z,7.43
2023-03-05T23:03:29.872Z,7.50
2023-03-05T23:06:32.898Z,6.50
2023-03-05T23:09:35.711Z,5.72
2023-03-05T23:12:41.765Z,5.43
2023-03-05T23:15:44.438Z,5.28
2023-03-05T23:18:47.545Z,5.60
2023-03-05T23:21:50.217Z,4.70
2023-03-05T23:24:53.339Z,4.70
2023-03-05T23:27:58.242Z,4.65
2023-03-05T23:31:02.449Z,4.28
2023-03-05T23:34:05.061Z,4.45
2023-03-05T23:37:08.074Z,4.57
2023-03-05T23:40:15.474Z,4.32
2023-03-05T23:43:19.009Z,4.70
2023-03-05T23:46:21.775Z,4.40
2023-03-05T23:49:24.818Z,4.78
2023-03-05T23:52:27.617Z,5.03
2023-03-05T23:55:33.945Z,4.50
2023-03-05T23:58:38.096Z,4.90
